createdAt,value
2022-09-11T00:00:59.592Z,4.81
2022-09-11T00:06:12.429Z,4.74
2022-09-11T00:08:47.059Z,4.70
2022-09-11T00:11:18.720Z,4.73
2022-09-11T00:13:50.500Z,4.69
2022-09-11T00:16:27.036Z,4.78
2022-09-11T00:18:58.738Z,4.78
2022-09-11T00:21:29.183Z,4.77
2022-09-11T00:23:58.687Z,4.79
2022-09-11T00:26:28.696Z,4.73
2022-09-11T00:29:01.412Z,4.73
2022-09-11T00:31:34.048Z,4.68
2022-09-11T00:34:03.280Z,4.59
2022-09-11T00:36:35.305Z,4.54
2022-09-11T00:39:10.194Z,4.50
2022-09-11T00:41:41.971Z,4.49
2022-09-11T00:44:46.193Z,4.44
2022-09-11T00:47:19.622Z,4.42
2022-09-11T00:49:57.213Z,4.41
2022-09-11T00:52:35.716Z,4.20
2022-09-11T00:55:09.507Z,4.32
2022-09-11T00:57:46.456Z,4.31
2022-09-11T01:00:16.468Z,4.24
2022-09-11T01:02:50.945Z,4.27
2022-09-11T01:05:26.723Z,4.18
2022-09-11T01:08:03.339Z,4.17
2022-09-11T01:10:45.907Z,4.03
2022-09-11T01:13:24.364Z,4.15
2022-09-11T01:16:03.396Z,4.12
2022-09-11T01:18:40.760Z,4.08
2022-09-11T01:21:38.117Z,4.01
2022-09-11T01:24:23.582Z,4.03
2022-09-11T01:27:07.123Z,4.05
2022-09-11T01:29:44.791Z,4.11
2022-09-11T01:32:22.967Z,4.06
2022-09-11T01:34:59.833Z,4.00
2022-09-11T01:37:37.931Z,3.95
2022-09-11T01:40:18.457Z,3.94
2022-09-11T01:45:46.777Z,3.85
2022-09-11T01:48:28.573Z,3.82
2022-09-11T01:50:58.437Z,3.84
2022-09-11T01:53:33.836Z,3.72
2022-09-11T01:56:07.791Z,3.66
2022-09-11T01:58:41.003Z,3.50
2022-09-11T02:01:19.341Z,3.56
2022-09-11T02:03:56.334Z,3.64
2022-09-11T02:06:32.791Z,3.60
2022-09-11T02:09:09.872Z,3.56
2022-09-11T02:11:42.703Z,3.61
2022-09-11T02:14:22.451Z,3.64
2022-09-11T02:16:55.704Z,3.62
2022-09-11T02:19:27.951Z,3.61
2022-09-11T02:21:58.258Z,3.72
2022-09-11T02:24:29.141Z,3.69
2022-09-11T02:27:02.595Z,3.65
2022-09-11T02:29:33.984Z,3.60
2022-09-11T02:32:05.784Z,3.58
2022-09-11T02:34:38.086Z,3.57
2022-09-11T02:37:18.298Z,3.58
2022-09-11T02:40:06.297Z,3.60
2022-09-11T02:43:04.601Z,3.52
2022-09-11T02:45:45.877Z,3.58
2022-09-11T02:48:34.353Z,3.57
2022-09-11T02:51:16.618Z,3.55
2022-09-11T02:53:53.718Z,3.55
2022-09-11T02:56:35.821Z,3.54
2022-09-11T02:59:11.564Z,3.58
2022-09-11T03:01:58.241Z,3.60
2022-09-11T03:04:31.435Z,3.66
2022-09-11T03:07:01.806Z,3.71
2022-09-11T03:09:41.678Z,3.73
2022-09-11T03:12:21.976Z,3.79
2022-09-11T03:14:52.856Z,3.80
2022-09-11T03:17:30.004Z,3.89
2022-09-11T03:20:01.269Z,3.99
2022-09-11T03:22:32.532Z,4.05
2022-09-11T03:25:01.809Z,4.15
2022-09-11T03:27:33.357Z,4.24
2022-09-11T03:30:02.717Z,4.28
2022-09-11T03:32:32.700Z,4.38
2022-09-11T03:35:03.952Z,4.34
2022-09-11T03:37:34.183Z,4.46
2022-09-11T03:40:04.375Z,4.47
2022-09-11T03:42:34.122Z,4.53
2022-09-11T03:45:03.657Z,4.61
2022-09-11T03:47:33.984Z,4.64
2022-09-11T03:50:05.013Z,4.66
2022-09-11T03:52:40.702Z,4.72
2022-09-11T03:55:10.444Z,4.70
2022-09-11T03:57:40.420Z,4.73
2022-09-11T04:00:15.133Z,4.82
2022-09-11T04:02:50.176Z,4.93
2022-09-11T04:05:34.368Z,5.05
2022-09-11T04:08:04.155Z,5.19
2022-09-11T04:10:35.072Z,5.18
2022-09-11T04:13:05.323Z,5.37
2022-09-11T04:15:42.289Z,5.43
2022-09-11T04:18:11.422Z,5.46
2022-09-11T04:20:49.126Z,5.53
2022-09-11T04:23:18.287Z,5.65
2022-09-11T04:25:52.913Z,5.76
2022-09-11T04:28:22.016Z,5.88
2022-09-11T04:30:51.306Z,5.96
2022-09-11T04:33:21.803Z,6.09
2022-09-11T04:35:58.503Z,6.26
2022-09-11T04:38:28.281Z,6.21
2022-09-11T04:41:02.418Z,6.50
2022-09-11T04:43:32.949Z,6.62
2022-09-11T04:46:04.927Z,6.73
2022-09-11T04:48:39.999Z,6.59
2022-09-11T04:51:11.783Z,6.80
2022-09-11T04:53:46.041Z,6.93
2022-09-11T04:56:15.661Z,7.02
2022-09-11T04:58:53.682Z,7.06
2022-09-11T05:01:35.034Z,7.12
2022-09-11T05:04:04.821Z,7.21
2022-09-11T05:06:37.485Z,7.30
2022-09-11T05:09:12.633Z,7.38
2022-09-11T05:11:41.979Z,7.49
2022-09-11T05:14:13.575Z,7.57
2022-09-11T05:16:45.018Z,7.62
2022-09-11T05:19:15.113Z,7.61
2022-09-11T05:21:48.318Z,7.66
2022-09-11T05:24:18.102Z,7.81
2022-09-11T05:26:47.180Z,7.80
2022-09-11T05:29:28.322Z,7.78
2022-09-11T05:32:13.005Z,7.86
2022-09-11T05:34:43.853Z,7.86
2022-09-11T05:37:22.086Z,7.89
2022-09-11T05:39:51.573Z,7.91
2022-09-11T05:42:21.736Z,7.99
2022-09-11T05:44:59.566Z,8.01
2022-09-11T05:47:33.378Z,8.25
2022-09-11T05:50:03.245Z,8.24
2022-09-11T05:52:34.717Z,8.49
2022-09-11T05:55:04.558Z,8.60
2022-09-11T05:57:34.627Z,8.71
2022-09-11T06:00:05.395Z,8.82
2022-09-11T06:02:39.268Z,8.95
2022-09-11T06:05:08.837Z,9.08
2022-09-11T06:07:39.976Z,9.24
2022-09-11T06:10:11.189Z,9.35
2022-09-11T06:12:40.407Z,9.49
2022-09-11T06:17:51.059Z,9.88
2022-09-11T06:20:20.101Z,9.84
2022-09-11T06:23:07.321Z,10.13
2022-09-11T06:25:39.017Z,10.25
2022-09-11T06:28:08.727Z,10.30
2022-09-11T06:31:06.078Z,10.44
2022-09-11T06:33:43.915Z,10.83
2022-09-11T06:36:16.870Z,10.84
2022-09-11T06:38:56.649Z,11.22
2022-09-11T06:41:28.805Z,11.33
2022-09-11T06:44:04.724Z,11.44
2022-09-11T06:46:36.194Z,11.48
2022-09-11T06:49:06.051Z,11.71
2022-09-11T06:51:40.940Z,11.78
2022-09-11T06:54:12.787Z,11.94
2022-09-11T06:56:41.901Z,12.09
2022-09-11T06:59:11.725Z,12.19
2022-09-11T07:01:46.475Z,12.28
2022-09-11T07:04:16.391Z,12.37
2022-09-11T07:06:46.734Z,12.58
2022-09-11T07:09:20.053Z,12.76
2022-09-11T07:11:53.752Z,12.96
2022-09-11T07:14:24.639Z,13.14
2022-09-11T07:17:00.423Z,13.23
2022-09-11T07:19:29.763Z,13.52
2022-09-11T07:22:01.079Z,13.56
2022-09-11T07:24:32.723Z,13.59
2022-09-11T07:27:02.126Z,13.57
2022-09-11T07:29:36.014Z,13.54
2022-09-11T07:32:05.442Z,13.49
2022-09-11T07:34:34.449Z,13.38
2022-09-11T07:37:07.906Z,13.44
2022-09-11T07:39:41.337Z,13.44
2022-09-11T07:42:23.791Z,13.43
2022-09-11T07:44:53.781Z,13.43
2022-09-11T07:47:22.861Z,13.42
2022-09-11T07:49:58.070Z,13.45
2022-09-11T07:52:27.487Z,13.51
2022-09-11T07:55:03.442Z,13.63
2022-09-11T07:57:35.849Z,13.74
2022-09-11T08:00:16.121Z,13.87
2022-09-11T08:02:51.149Z,13.80
2022-09-11T08:05:33.206Z,13.59
2022-09-11T08:08:02.851Z,13.82
2022-09-11T08:10:38.446Z,13.83
2022-09-11T08:13:09.571Z,13.64
2022-09-11T08:15:47.241Z,13.74
2022-09-11T08:18:16.845Z,13.85
2022-09-11T08:20:46.947Z,13.92
2022-09-11T08:23:18.993Z,14.09
2022-09-11T08:25:50.581Z,14.25
2022-09-11T08:28:20.105Z,14.38
2022-09-11T08:30:50.681Z,14.54
2022-09-11T08:33:20.762Z,14.59
2022-09-11T08:35:49.860Z,14.56
2022-09-11T08:38:19.811Z,14.40
2022-09-11T08:40:51.267Z,14.46
2022-09-11T08:43:24.317Z,14.41
2022-09-11T08:46:00.822Z,14.40
2022-09-11T08:48:37.222Z,14.32
2022-09-11T08:51:07.425Z,14.40
2022-09-11T08:53:36.747Z,14.45
2022-09-11T08:56:13.996Z,14.59
2022-09-11T08:59:03.980Z,14.76
2022-09-11T09:01:41.863Z,15.07
2022-09-11T09:04:40.990Z,15.42
2022-09-11T09:07:28.179Z,15.41
2022-09-11T09:10:08.562Z,15.65
2022-09-11T09:12:48.663Z,15.83
2022-09-11T09:15:32.145Z,15.81
2022-09-11T09:18:05.131Z,15.93
2022-09-11T09:20:37.799Z,15.93
2022-09-11T09:23:16.952Z,15.98
2022-09-11T09:25:48.621Z,15.93
2022-09-11T09:28:24.455Z,15.91
2022-09-11T09:30:57.125Z,15.80
2022-09-11T09:33:34.258Z,15.84
2022-09-11T09:36:17.067Z,15.88
2022-09-11T09:38:53.551Z,15.97
2022-09-11T09:41:45.141Z,16.19
2022-09-11T09:44:25.907Z,16.13
2022-09-11T09:46:57.693Z,16.20
2022-09-11T09:49:35.004Z,16.30
2022-09-11T09:52:18.794Z,16.39
2022-09-11T09:54:56.634Z,16.33
2022-09-11T09:57:36.292Z,16.29
2022-09-11T10:00:17.084Z,16.21
2022-09-11T10:02:49.024Z,16.08
2022-09-11T10:05:21.670Z,15.95
2022-09-11T10:07:53.235Z,16.07
2022-09-11T10:10:28.743Z,16.13
2022-09-11T10:13:18.132Z,15.96
2022-09-11T10:15:51.384Z,16.05
2022-09-11T10:18:25.161Z,15.97
2022-09-11T10:20:55.909Z,15.68
2022-09-11T10:23:27.029Z,15.61
2022-09-11T10:25:56.509Z,15.67
2022-09-11T10:28:32.755Z,15.51
2022-09-11T10:31:06.460Z,15.69
2022-09-11T10:33:38.259Z,15.77
2022-09-11T10:36:11.341Z,15.92
2022-09-11T10:38:49.638Z,15.97
2022-09-11T10:41:26.192Z,16.28
2022-09-11T10:43:59.992Z,16.56
2022-09-11T10:46:40.478Z,16.77
2022-09-11T10:49:20.165Z,17.00
2022-09-11T10:52:05.019Z,17.06
2022-09-11T10:54:44.112Z,17.25
2022-09-11T10:57:20.839Z,17.35
2022-09-11T10:59:59.676Z,17.36
2022-09-11T11:02:34.377Z,17.67
2022-09-11T11:05:17.936Z,17.73
2022-09-11T11:08:20.570Z,17.98
2022-09-11T11:11:14.319Z,18.08
2022-09-11T11:13:59.979Z,18.01
2022-09-11T11:16:39.196Z,17.90
2022-09-11T11:19:34.452Z,17.81
2022-09-11T11:22:19.026Z,17.54
2022-09-11T11:25:04.298Z,17.59
2022-09-11T11:28:06.243Z,17.70
2022-09-11T11:30:44.511Z,17.69
2022-09-11T11:33:41.901Z,17.59
2022-09-11T11:36:22.416Z,17.71
2022-09-11T11:41:45.475Z,17.64
2022-09-11T11:44:19.832Z,17.72
2022-09-11T11:46:56.701Z,17.90
2022-09-11T11:49:36.316Z,18.04
2022-09-11T11:52:22.705Z,18.10
2022-09-11T11:55:00.693Z,18.27
2022-09-11T11:57:37.254Z,18.11
2022-09-11T12:00:09.999Z,18.06
2022-09-11T12:02:52.244Z,17.94
2022-09-11T12:05:25.174Z,17.95
2022-09-11T12:07:56.583Z,17.99
2022-09-11T12:10:32.962Z,17.89
2022-09-11T12:13:04.786Z,17.73
2022-09-11T12:15:36.343Z,17.67
2022-09-11T12:18:19.421Z,17.62
2022-09-11T12:20:48.615Z,17.40
2022-09-11T12:24:02.767Z,17.49
2022-09-11T12:26:33.198Z,17.53
2022-09-11T12:29:32.821Z,17.42
2022-09-11T12:32:21.537Z,17.63
2022-09-11T12:35:18.369Z,17.56
2022-09-11T12:37:54.310Z,17.61
2022-09-11T12:40:34.312Z,17.59
2022-09-11T12:43:32.504Z,17.56
2022-09-11T12:46:02.062Z,17.37
2022-09-11T12:48:39.541Z,17.19
2022-09-11T12:57:05.181Z,16.94
2022-09-11T13:02:34.005Z,16.88
2022-09-11T13:05:04.740Z,16.80
2022-09-11T13:07:42.848Z,16.82
2022-09-11T13:10:27.521Z,16.73
2022-09-11T13:12:59.603Z,16.94
2022-09-11T13:15:44.754Z,16.93
2022-09-11T13:18:25.935Z,16.85
2022-09-11T13:21:08.299Z,17.00
2022-09-11T13:23:42.789Z,16.85
2022-09-11T13:26:21.801Z,16.90
2022-09-11T13:28:55.629Z,16.85
2022-09-11T13:31:35.299Z,16.81
2022-09-11T13:34:07.943Z,16.68
2022-09-11T13:36:38.327Z,16.65
2022-09-11T13:39:09.580Z,16.58
2022-09-11T13:41:47.472Z,16.53
2022-09-11T13:44:33.530Z,16.56
2022-09-11T13:47:05.951Z,16.47
2022-09-11T13:49:38.795Z,16.41
2022-09-11T13:52:09.605Z,16.21
2022-09-11T13:54:43.863Z,16.29
2022-09-11T13:57:18.063Z,16.22
2022-09-11T13:59:53.169Z,16.24
2022-09-11T14:02:32.659Z,16.19
2022-09-11T14:05:09.524Z,16.10
2022-09-11T14:07:48.770Z,16.00
2022-09-11T14:10:23.769Z,15.88
2022-09-11T14:12:59.461Z,15.90
2022-09-11T14:15:39.905Z,15.90
2022-09-11T14:18:19.651Z,15.72
2022-09-11T14:20:49.243Z,15.65
2022-09-11T14:23:25.149Z,15.47
2022-09-11T14:26:10.818Z,15.58
2022-09-11T14:28:46.140Z,15.49
2022-09-11T14:31:30.519Z,15.42
2022-09-11T14:34:17.361Z,15.29
2022-09-11T14:36:52.390Z,15.24
2022-09-11T14:39:31.477Z,15.09
2022-09-11T14:42:01.825Z,15.01
2022-09-11T14:44:32.371Z,14.91
2022-09-11T14:47:03.993Z,14.64
2022-09-11T14:49:32.759Z,14.87
2022-09-11T14:52:03.217Z,14.62
2022-09-11T14:54:32.827Z,14.52
2022-09-11T14:57:03.296Z,14.31
2022-09-11T14:59:32.576Z,14.33
2022-09-11T15:02:09.515Z,14.26
2022-09-11T15:04:43.305Z,14.32
2022-09-11T15:07:13.594Z,14.12
2022-09-11T15:09:43.142Z,14.03
2022-09-11T15:12:19.276Z,13.70
2022-09-11T15:14:56.863Z,13.79
2022-09-11T15:17:30.901Z,13.68
2022-09-11T15:20:00.838Z,13.61
2022-09-11T15:22:30.900Z,13.56
2022-09-11T15:25:05.180Z,13.48
2022-09-11T15:27:34.503Z,13.34
2022-09-11T15:30:03.592Z,13.39
2022-09-11T15:32:35.096Z,13.34
2022-09-11T15:35:05.180Z,13.29
2022-09-11T15:37:35.523Z,13.25
2022-09-11T15:40:05.209Z,12.87
2022-09-11T15:42:39.533Z,13.12
2022-09-11T15:45:12.925Z,13.06
2022-09-11T15:47:44.104Z,13.03
2022-09-11T15:50:17.708Z,13.00
2022-09-11T15:52:48.205Z,12.94
2022-09-11T15:55:19.335Z,12.93
2022-09-11T15:57:48.560Z,12.84
2022-09-11T16:00:17.983Z,12.74
2022-09-11T16:02:53.762Z,12.68
2022-09-11T16:05:22.835Z,12.61
2022-09-11T16:07:52.413Z,12.51
2022-09-11T16:10:21.659Z,12.45
2022-09-11T16:12:52.083Z,12.44
2022-09-11T16:15:22.958Z,12.39
2022-09-11T16:17:54.306Z,12.43
2022-09-11T16:20:24.775Z,12.38
2022-09-11T16:22:54.363Z,12.38
2022-09-11T16:25:23.478Z,12.36
2022-09-11T16:27:53.049Z,12.30
2022-09-11T16:33:14.153Z,12.41
2022-09-11T16:35:43.353Z,12.41
2022-09-11T16:38:12.563Z,12.39
2022-09-11T16:40:42.026Z,12.38
2022-09-11T16:43:11.631Z,12.37
2022-09-11T16:45:43.741Z,12.33
2022-09-11T16:48:16.669Z,12.34
2022-09-11T16:50:55.175Z,12.32
2022-09-11T16:53:25.020Z,12.28
2022-09-11T16:55:55.054Z,12.26
2022-09-11T16:58:24.892Z,12.13
2022-09-11T17:00:54.228Z,12.20
2022-09-11T17:03:25.587Z,12.13
2022-09-11T17:05:57.253Z,12.13
2022-09-11T17:08:26.442Z,12.12
2022-09-11T17:10:57.848Z,12.11
2022-09-11T17:13:28.490Z,12.12
2022-09-11T17:16:03.393Z,12.12
2022-09-11T17:18:35.350Z,12.02
2022-09-11T17:21:07.242Z,12.07
2022-09-11T17:23:38.865Z,12.13
2022-09-11T17:26:09.290Z,12.05
2022-09-11T17:28:39.103Z,12.02
2022-09-11T17:31:10.086Z,12.02
2022-09-11T17:33:41.921Z,12.00
2022-09-11T17:36:13.025Z,11.91
2022-09-11T17:38:49.692Z,11.96
2022-09-11T17:41:20.601Z,11.91
2022-09-11T17:43:50.548Z,11.88
2022-09-11T17:46:21.729Z,11.88
2022-09-11T17:48:52.994Z,11.82
2022-09-11T17:51:24.798Z,11.80
2022-09-11T17:53:54.982Z,11.87
2022-09-11T17:56:31.869Z,11.69
2022-09-11T17:59:03.082Z,11.71
2022-09-11T18:01:32.383Z,11.65
2022-09-11T18:04:05.555Z,11.62
2022-09-11T18:06:41.475Z,11.57
2022-09-11T18:09:15.657Z,11.53
2022-09-11T18:11:47.266Z,11.51
2022-09-11T18:14:23.200Z,11.46
2022-09-11T18:16:57.695Z,11.33
2022-09-11T18:19:35.042Z,11.44
2022-09-11T18:22:04.352Z,11.35
2022-09-11T18:24:39.803Z,11.49
2022-09-11T18:27:11.256Z,11.47
2022-09-11T18:29:45.597Z,11.49
2022-09-11T18:32:21.761Z,11.62
2022-09-11T18:34:59.868Z,11.65
2022-09-11T18:37:29.767Z,11.65
2022-09-11T18:40:00.018Z,11.58
2022-09-11T18:42:29.658Z,11.53
2022-09-11T18:44:59.949Z,11.51
2022-09-11T18:47:30.344Z,11.46
2022-09-11T18:50:03.504Z,11.45
2022-09-11T18:52:33.974Z,11.40
2022-09-11T18:55:03.473Z,11.38
2022-09-11T18:57:38.627Z,11.35
2022-09-11T19:00:13.951Z,11.38
2022-09-11T19:02:43.294Z,11.37
2022-09-11T19:05:15.642Z,11.37
2022-09-11T19:07:46.185Z,11.23
2022-09-11T19:10:16.125Z,11.42
2022-09-11T19:12:45.577Z,11.42
2022-09-11T19:15:16.396Z,11.49
2022-09-11T19:17:47.900Z,11.49
2022-09-11T19:20:20.762Z,11.51
2022-09-11T19:22:50.008Z,11.52
2022-09-11T19:25:19.342Z,11.57
2022-09-11T19:28:00.318Z,11.56
2022-09-11T19:30:29.431Z,11.55
2022-09-11T19:33:00.452Z,11.52
2022-09-11T19:35:31.719Z,11.52
2022-09-11T19:38:01.313Z,11.17
2022-09-11T19:40:30.552Z,11.39
2022-09-11T19:43:04.680Z,11.34
2022-09-11T19:45:39.268Z,11.30
2022-09-11T19:48:14.352Z,11.18
2022-09-11T19:50:47.608Z,11.19
2022-09-11T19:53:21.852Z,11.22
2022-09-11T19:55:55.501Z,11.17
2022-09-11T19:58:25.572Z,11.18
2022-09-11T20:00:55.108Z,11.15
2022-09-11T20:03:30.238Z,11.11
2022-09-11T20:06:02.347Z,11.12
2022-09-11T20:08:31.935Z,11.09
2022-09-11T20:11:03.271Z,10.94
2022-09-11T20:13:37.635Z,11.02
2022-09-11T20:16:14.528Z,10.95
2022-09-11T20:18:44.174Z,11.00
2022-09-11T20:21:17.231Z,10.99
2022-09-11T20:23:47.440Z,10.97
2022-09-11T20:26:23.832Z,10.95
2022-09-11T20:28:57.535Z,10.90
2022-09-11T20:31:29.424Z,10.89
2022-09-11T20:34:04.231Z,10.88
2022-09-11T20:36:35.451Z,10.89
2022-09-11T20:39:04.667Z,10.81
2022-09-11T20:41:35.345Z,10.71
2022-09-11T20:44:05.846Z,10.78
2022-09-11T20:46:43.080Z,10.76
2022-09-11T20:49:17.986Z,10.61
2022-09-11T20:51:49.222Z,10.70
2022-09-11T20:54:18.411Z,10.76
2022-09-11T20:56:47.914Z,10.69
2022-09-11T20:59:17.130Z,10.72
2022-09-11T21:01:46.363Z,10.77
2022-09-11T21:04:15.513Z,10.76
2022-09-11T21:06:44.978Z,10.77
2022-09-11T21:09:16.906Z,10.78
2022-09-11T21:11:45.717Z,10.88
2022-09-11T21:14:16.751Z,10.81
2022-09-11T21:16:46.152Z,10.80
2022-09-11T21:19:15.348Z,10.76
2022-09-11T21:21:44.427Z,10.62
2022-09-11T21:24:21.074Z,10.74
2022-09-11T21:26:50.148Z,10.72
2022-09-11T21:29:19.185Z,10.73
2022-09-11T21:31:48.406Z,10.71
2022-09-11T21:34:18.077Z,10.71
2022-09-11T21:36:54.029Z,10.71
2022-09-11T21:39:24.972Z,10.71
2022-09-11T21:44:39.243Z,10.70
2022-09-11T21:47:08.380Z,10.54
2022-09-11T21:49:37.630Z,10.63
2022-09-11T21:52:07.218Z,10.60
2022-09-11T21:54:38.801Z,10.57
2022-09-11T21:57:08.054Z,10.58
2022-09-11T21:59:37.107Z,10.59
2022-09-11T22:02:08.364Z,10.59
2022-09-11T22:04:37.532Z,10.49
2022-09-11T22:07:06.700Z,10.57
2022-09-11T22:09:37.949Z,10.57
2022-09-11T22:12:12.553Z,10.61
2022-09-11T22:14:43.853Z,10.57
2022-09-11T22:17:13.428Z,10.61
2022-09-11T22:19:45.489Z,10.63
2022-09-11T22:22:14.825Z,10.60
2022-09-11T22:24:46.219Z,10.61
2022-09-11T22:27:20.491Z,10.56
2022-09-11T22:29:49.641Z,10.55
2022-09-11T22:32:18.629Z,10.59
2022-09-11T22:34:57.740Z,10.57
2022-09-11T22:37:26.974Z,10.52
2022-09-11T22:39:58.071Z,10.49
2022-09-11T22:42:27.222Z,10.45
2022-09-11T22:44:56.361Z,10.45
2022-09-11T22:47:32.846Z,10.25
2022-09-11T22:50:02.000Z,10.36
2022-09-11T22:52:32.746Z,10.39
2022-09-11T22:55:03.976Z,10.39
2022-09-11T22:57:33.391Z,10.39
2022-09-11T23:00:02.518Z,10.38
2022-09-11T23:02:33.811Z,10.38
2022-09-11T23:05:22.105Z,10.39
2022-09-11T23:07:56.575Z,10.37
2022-09-11T23:10:27.719Z,10.37
2022-09-11T23:12:56.948Z,10.39
2022-09-11T23:15:31.422Z,10.38
2022-09-11T23:18:00.565Z,10.18
2022-09-11T23:20:31.598Z,10.38
2022-09-11T23:23:01.146Z,10.39
2022-09-11T23:25:34.743Z,10.42
2022-09-11T23:30:40.564Z,10.39
2022-09-11T23:33:09.776Z,10.41
2022-09-11T23:35:39.930Z,10.49
2022-09-11T23:38:10.037Z,10.45
2022-09-11T23:40:41.344Z,10.44
2022-09-11T23:43:10.514Z,10.43
2022-09-11T23:45:39.623Z,10.39
2022-09-11T23:48:13.814Z,10.35
2022-09-11T23:50:42.976Z,10.37
2022-09-11T23:53:12.001Z,10.31
2022-09-11T23:58:19.659Z,10.26
